createdAt,value
2024-02-13T00:18:41.589Z,8.10
2024-02-13T00:38:41.301Z,9.30
2024-02-13T00:58:41.023Z,9.00
2024-02-13T01:18:40.863Z,9.90
2024-02-13T01:38:40.563Z,8.50
2024-02-13T01:58:40.203Z,4.40
2024-02-13T02:18:39.981Z,8.10
2024-02-13T02:38:39.867Z,6.70
2024-02-13T02:58:39.359Z,8.20
2024-02-13T03:18:39.300Z,9.60
2024-02-13T03:38:38.856Z,11.40
2024-02-13T03:58:38.529Z,11.60
2024-02-13T04:18:38.360Z,12.90
2024-02-13T04:38:38.068Z,16.30
2024-02-13T04:58:37.751Z,10.10
2024-02-13T05:18:37.649Z,12.90
2024-02-13T05:38:37.248Z,20.70
2024-02-13T05:58:36.975Z,25.40
2024-02-13T06:18:36.853Z,25.30
2024-02-13T06:38:36.736Z,31.60
2024-02-13T06:58:36.166Z,25.50
2024-02-13T07:18:37.062Z,26.40
2024-02-13T07:38:35.705Z,29.30
2024-02-13T07:58:35.425Z,33.20
2024-02-13T08:18:35.235Z,35.60
2024-02-13T08:38:34.927Z,45.70
2024-02-13T08:58:34.600Z,38.90
2024-02-13T09:18:34.409Z,40.90
2024-02-13T09:38:34.101Z,42.10
2024-02-13T09:58:33.821Z,32.40
2024-02-13T10:18:33.777Z,30.70
2024-02-13T10:38:33.311Z,25.30
2024-02-13T10:58:33.928Z,24.80
2024-02-13T11:18:32.973Z,18.90
2024-02-13T11:38:32.504Z,19.60
2024-02-13T11:58:32.240Z,18.90
2024-02-13T12:18:32.139Z,15.50
2024-02-13T12:38:32.043Z,15.00
2024-02-13T12:58:31.355Z,12.00
2024-02-13T13:18:31.234Z,16.20
2024-02-13T13:38:30.917Z,13.20
2024-02-13T13:58:30.569Z,14.90
2024-02-13T14:18:30.467Z,12.00
2024-02-13T14:38:30.007Z,9.70
2024-02-13T14:58:38.426Z,9.20
2024-02-13T15:18:29.529Z,9.10
2024-02-13T15:38:29.602Z,10.10
2024-02-13T15:58:28.903Z,11.00
2024-02-13T16:18:28.757Z,6.40
2024-02-13T16:38:28.440Z,7.60
2024-02-13T16:58:28.145Z,9.30
2024-02-13T17:18:27.989Z,8.60
2024-02-13T17:38:27.578Z,7.40
2024-02-13T17:58:27.272Z,9.80
2024-02-13T18:18:28.209Z,6.40
2024-02-13T18:38:26.793Z,6.60
2024-02-13T18:58:26.466Z,7.80
2024-02-13T19:18:26.384Z,6.80
2024-02-13T19:38:25.991Z,6.50
2024-02-13T19:58:25.740Z,6.90
2024-02-13T20:18:25.530Z,6.10
2024-02-13T20:38:25.167Z,8.20
2024-02-13T20:58:24.878Z,8.30
2024-02-13T21:18:24.745Z,5.70
2024-02-13T21:38:24.536Z,9.80
2024-02-13T21:58:24.046Z,11.50
2024-02-13T22:18:26.378Z,6.40
2024-02-13T22:38:23.529Z,5.60
2024-02-13T22:58:23.303Z,7.80
2024-02-13T23:18:23.095Z,7.20
2024-02-13T23:38:22.823Z,8.80
2024-02-13T23:58:22.486Z,11.10
